Barnes City, Iowa
Current Conditions -  °F | °C
As of 3:15 PM on Thursday 23 Oct 2014 (Local Time) from KOOA Reporting Station
Overcast Overcast  
Wind Chill: 61°   Ceiling: 1200
Heat Index: 61°   Visibility: 10mi
Dew Point: 55°   Wind: 8mph
Humidity: 81%   Direction: 250°WSW
Pressure: 30.04"   Gusts: NA
Location:  41.51°N, 92.47°W
Report Text: KOOA 232015Z AUTO 25007KT 10SM OVC012 16/13 A3004 RMK AO2 T01600127
Loading
Personal Weather Stations






























Interactive Weather Map
Tropical Storm Tracking
New forecast layout! Learn more

10-Day Weather Forecast

Advertisements
Track Severe Weather on mobile